Observation data for Slaton on 11/17/2019      Previous  Date       Current Mesonet Observations  Soil Data  Daily Summary Page  Observations in Plain Language
KSLS 170600Z 23008KT 08/05 A2996 RMK A01 T00780045  RH  081%=      5-min Rain = 0
KSLS 170605Z 23008KT 08/05 A2997 RMK A01 T00770045  RH  081%=      5-min Rain = 0
KSLS 170610Z 24007KT 08/05 A2997 RMK A01 T00780045  RH  081%=      5-min Rain = 0
KSLS 170615Z 23007KT 08/05 A2997 RMK A01 T00780045  RH  080%=      5-min Rain = 0
KSLS 170620Z 23007KT 08/05 A2997 RMK A01 T00770045  RH  081%=      5-min Rain = 0
KSLS 170625Z 23006KT 08/04 A2997 RMK A01 T00760044  RH  082%=      5-min Rain = 0
KSLS 170630Z 23007KT 08/04 A2997 RMK A01 T00750044  RH  082%=      5-min Rain = 0
KSLS 170635Z 24006KT 08/04 A2997 RMK A01 T00750044  RH  082%=      5-min Rain = 0
KSLS 170640Z 23006KT 08/04 A2998 RMK A01 T00750044  RH  082%=      5-min Rain = 0
KSLS 170645Z 23007KT 08/05 A2997 RMK A01 T00770045  RH  081%=      5-min Rain = 0
KSLS 170650Z 22008KT 08/04 A2997 RMK A01 T00770044  RH  081%=      5-min Rain = 0
KSLS 170655Z 23007KT 08/04 A2997 RMK A01 T00750044  RH  082%=      5-min Rain = 0
KSLS 170700Z 24006KT 07/04 A2997 RMK A01 T00740043  RH  082%=      5-min Rain = 0
KSLS 170705Z 24005KT 07/04 A2997 RMK A01 T00730042  RH  082%=      5-min Rain = 0
KSLS 170710Z 24004KT 07/04 A2997 RMK A01 T00700041  RH  083%=      5-min Rain = 0
KSLS 170715Z 25004KT 07/04 A2997 RMK A01 T00690040  RH  083%=      5-min Rain = 0
KSLS 170720Z 25004KT 07/04 A2997 RMK A01 T00670039  RH  083%=      5-min Rain = 0
KSLS 170725Z 26004KT 07/04 A2997 RMK A01 T00660038  RH  084%=      5-min Rain = 0
KSLS 170730Z 28003KT 07/04 A2998 RMK A01 T00650039  RH  085%=      5-min Rain = 0
KSLS 170735Z 33002KT 06/04 A2998 RMK A01 T00630039  RH  085%=      5-min Rain = 0
KSLS 170740Z 33002KT 06/04 A2998 RMK A01 T00610037  RH  086%=      5-min Rain = 0
KSLS 170745Z 31002KT 06/04 A2998 RMK A01 T00600039  RH  087%=      5-min Rain = 0
KSLS 170750Z 29003KT 06/04 A2998 RMK A01 T00610040  RH  087%=      5-min Rain = 0
KSLS 170755Z 28003KT 06/04 A2997 RMK A01 T00570036  RH  087%=      5-min Rain = 0
KSLS 170800Z 27003KT 05/03 A2997 RMK A01 T00520032  RH  088%=      5-min Rain = 0
KSLS 170805Z 27003KT 05/03 A2996 RMK A01 T00490031  RH  089%=      5-min Rain = 0
KSLS 170810Z 26003KT 05/03 A2996 RMK A01 T00470030  RH  090%=      5-min Rain = 0
KSLS 170815Z 26002KT 05/03 A2996 RMK A01 T00470031  RH  090%=      5-min Rain = 0
KSLS 170820Z 25003KT 05/03 A2996 RMK A01 T00450030  RH  091%=      5-min Rain = 0
KSLS 170825Z 23004KT 04/03 A2996 RMK A01 T00410026  RH  091%=      5-min Rain = 0
KSLS 170830Z 24004KT 04/03 A2995 RMK A01 T00420030  RH  093%=      5-min Rain = 0
KSLS 170835Z 24005KT 04/03 A2995 RMK A01 T00380025  RH  092%=      5-min Rain = 0
KSLS 170840Z 24006KT 04/03 A2995 RMK A01 T00390027  RH  093%=      5-min Rain = 0
KSLS 170845Z 24005KT 04/03 A2995 RMK A01 T00390027  RH  093%=      5-min Rain = 0
KSLS 170850Z 25005KT 05/03 A2996 RMK A01 T00450034  RH  093%=      5-min Rain = 0
KSLS 170855Z 27004KT 05/03 A2996 RMK A01 T00460031  RH  091%=      5-min Rain = 0
KSLS 170900Z 27005KT 04/03 A2996 RMK A01 T00420025  RH  090%=      5-min Rain = 0
KSLS 170905Z 27005KT 04/02 A2996 RMK A01 T00360020  RH  091%=      5-min Rain = 0
KSLS 170910Z 27005KT 03/02 A2996 RMK A01 T00340021  RH  092%=      5-min Rain = 0
KSLS 170915Z 28007KT 03/02 A2996 RMK A01 T00330019  RH  092%=      5-min Rain = 0
KSLS 170920Z 28008KT 04/02 A2997 RMK A01 T00350023  RH  093%=      5-min Rain = 0
KSLS 170925Z 28008KT 04/03 A2997 RMK A01 T00370025  RH  093%=      5-min Rain = 0
KSLS 170930Z 28008KT 04/02 A2997 RMK A01 T00350022  RH  092%=      5-min Rain = 0
KSLS 170935Z 29009KT 04/02 A2997 RMK A01 T00360024  RH  093%=      5-min Rain = 0
KSLS 170940Z 30009KT 04/03 A2997 RMK A01 T00380025  RH  092%=      5-min Rain = 0
KSLS 170945Z 30008KT 04/02 A2997 RMK A01 T00390024  RH  091%=      5-min Rain = 0
KSLS 170950Z 32008KT 05/03 A2997 RMK A01 T00450029  RH  091%=      5-min Rain = 0
KSLS 170955Z 33011KT 05/03 A2998 RMK A01 T00500030  RH  088%=      5-min Rain = 0
KSLS 171000Z 34013KT 06/03 A2998 RMK A01 T00560027  RH  083%=      5-min Rain = 0
KSLS 171005Z 35013G19KT 06/02 A2999 RMK A01 T00600023  RH  078%=      5-min Rain = 0
KSLS 171010Z 34012G18KT 06/02 A2999 RMK A01 T00600020  RH  077%=      5-min Rain = 0
KSLS 171015Z 34012G18KT 06/02 A30 RMK A01 T00610020  RH  076%=      5-min Rain = 0
KSLS 171020Z 35015G22KT 07/02 A30 RMK A01 T00710022  RH  072%=      5-min Rain = 0
KSLS 171025Z 36014G19KT 08/02 A30 RMK A01 T00780021  RH  068%=      5-min Rain = 0
KSLS 171030Z 00014G22KT 08/02 A30 RMK A01 T00800018  RH  066%=      5-min Rain = 0
KSLS 171035Z 00015G22KT 08/01 A3001 RMK A01 T00810014  RH  063%=      5-min Rain = 0
KSLS 171040Z 00015G21KT 08/01 A3001 RMK A01 T00810012  RH  062%=      5-min Rain = 0
KSLS 171045Z 00013KT 08/01 A3002 RMK A01 T00800011  RH  063%=      5-min Rain = 0
KSLS 171050Z 36013G19KT 08/01 A3002 RMK A01 T00800010  RH  062%=      5-min Rain = 0
KSLS 171055Z 35013G18KT 08/01 A3002 RMK A01 T00790009  RH  062%=      5-min Rain = 0
KSLS 171100Z 35013G19KT 08/01 A3002 RMK A01 T00790008  RH  062%=      5-min Rain = 0
KSLS 171105Z 35013KT 08/01 A3002 RMK A01 T00780008  RH  062%=      5-min Rain = 0
KSLS 171110Z 36011G16KT 08/01 A3002 RMK A01 T00780006  RH  061%=      5-min Rain = 0
KSLS 171115Z 36011KT 08/01 A3003 RMK A01 T00780005  RH  060%=      5-min Rain = 0
KSLS 171120Z 36011G18KT 08/00 A3003 RMK A01 T00780003  RH  060%=      5-min Rain = 0
KSLS 171125Z 35013G18KT 08/00 A3003 RMK A01 T00790003  RH  059%=      5-min Rain = 0
KSLS 171130Z 35013KT 08/00 A3003 RMK A01 T00800002  RH  059%=      5-min Rain = 0
KSLS 171135Z 35013G21KT 08/00 A3004 RMK A01 T00790001  RH  058%=      5-min Rain = 0
KSLS 171140Z 35013G20KT 08/00 A3004 RMK A01 T00790000  RH  058%=      5-min Rain = 0
KSLS 171145Z 35014G22KT 08/00 A3004 RMK A01 T007900-0  RH  058%=      5-min Rain = 0
KSLS 171150Z 36013G19KT 08/M00 A3004 RMK A01 T00781001  RH  058%=      5-min Rain = 0
KSLS 171155Z 36014G20KT 08/M00 A3004 RMK A01 T00791001  RH  057%=      5-min Rain = 0
KSLS 171200Z 00013G20KT 08/M00 A3004 RMK A01 T00801001  RH  057%=      5-min Rain = 0
KSLS 171205Z 36015G23KT 08/M00 A3004 RMK A01 T00811001  RH  057%=      5-min Rain = 0
KSLS 171210Z 36014G22KT 08/M00 A3005 RMK A01 T00801002  RH  057%=      5-min Rain = 0
KSLS 171215Z 36011KT 08/M00 A3005 RMK A01 T00781001  RH  058%=      5-min Rain = 0
KSLS 171220Z 00013G19KT 08/M00 A3006 RMK A01 T00781001  RH  058%=      5-min Rain = 0
KSLS 171225Z 36014G21KT 08/M00 A3006 RMK A01 T00781001  RH  058%=      5-min Rain = 0
KSLS 171230Z 36015G23KT 08/M00 A3006 RMK A01 T00781001  RH  058%=      5-min Rain = 0
KSLS 171235Z 35015G20KT 08/M00 A3007 RMK A01 T00771001  RH  058%=      5-min Rain = 0
KSLS 171240Z 36015G24KT 08/M00 A3007 RMK A01 T00771001  RH  059%=      5-min Rain = 0
KSLS 171245Z 35018G26KT 08/00 A3008 RMK A01 T00770000  RH  059%=      5-min Rain = 0
KSLS 171250Z 35019G25KT 08/00 A3008 RMK A01 T00770000  RH  059%=      5-min Rain = 0
KSLS 171255Z 36018G26KT 08/00 A3008 RMK A01 T00780001  RH  059%=      5-min Rain = 0
KSLS 171300Z 36018G26KT 08/00 A3009 RMK A01 T00780002  RH  059%=      5-min Rain = 0
KSLS 171305Z 36019G28KT 08/00 A3009 RMK A01 T00770002  RH  060%=      5-min Rain = 0
KSLS 171310Z 36018G25KT 08/00 A301 RMK A01 T00770003  RH  060%=      5-min Rain = 0
KSLS 171315Z 35018G25KT 08/00 A301 RMK A01 T00760003  RH  061%=      5-min Rain = 0
KSLS 171320Z 35018G27KT 08/00 A301 RMK A01 T00750004  RH  061%=      5-min Rain = 0
KSLS 171325Z 35017G26KT 07/00 A3011 RMK A01 T00740004  RH  062%=      5-min Rain = 0
KSLS 171330Z 35017G28KT 07/00 A3011 RMK A01 T00730004  RH  062%=      5-min Rain = 0
KSLS 171335Z 35017G24KT 07/01 A3011 RMK A01 T00730005  RH  063%=      5-min Rain = 0
KSLS 171340Z 35017G27KT 07/01 A3012 RMK A01 T00730005  RH  063%=      5-min Rain = 0
KSLS 171345Z 35017G26KT 07/01 A3012 RMK A01 T00730006  RH  063%=      5-min Rain = 0
KSLS 171350Z 35016G22KT 07/01 A3012 RMK A01 T00740007  RH  063%=      5-min Rain = 0
KSLS 171355Z 35015G22KT 07/01 A3013 RMK A01 T00740008  RH  063%=      5-min Rain = 0
KSLS 171400Z 36015G25KT 07/01 A3013 RMK A01 T00740008  RH  064%=      5-min Rain = 0
KSLS 171405Z 36016G23KT 08/01 A3013 RMK A01 T00750009  RH  064%=      5-min Rain = 0
KSLS 171410Z 00013G21KT 08/01 A3013 RMK A01 T00770010  RH  064%=      5-min Rain = 0
KSLS 171415Z 35016G24KT 08/01 A3013 RMK A01 T00780011  RH  063%=      5-min Rain = 0
KSLS 171420Z 36013G18KT 08/01 A3014 RMK A01 T00780012  RH  063%=      5-min Rain = 0
KSLS 171425Z 36014G24KT 08/01 A3015 RMK A01 T00790012  RH  063%=      5-min Rain = 0
KSLS 171430Z 35013G19KT 08/01 A3015 RMK A01 T00800013  RH  063%=      5-min Rain = 0
KSLS 171435Z 36015G22KT 08/01 A3015 RMK A01 T00810013  RH  063%=      5-min Rain = 0
KSLS 171440Z 36015G25KT 08/01 A3015 RMK A01 T00830014  RH  063%=      5-min Rain = 0
KSLS 171445Z 00015G21KT 08/01 A3016 RMK A01 T00840014  RH  062%=      5-min Rain = 0
KSLS 171450Z 36014G22KT 09/02 A3016 RMK A01 T00850015  RH  062%=      5-min Rain = 0
KSLS 171455Z 00016G23KT 09/02 A3016 RMK A01 T00860015  RH  061%=      5-min Rain = 0
KSLS 171500Z 00013G23KT 09/02 A3016 RMK A01 T00890016  RH  061%=      5-min Rain = 0
KSLS 171505Z 00015G23KT 09/02 A3016 RMK A01 T00900016  RH  060%=      5-min Rain = 0
KSLS 171510Z 00015G23KT 09/02 A3017 RMK A01 T00910016  RH  060%=      5-min Rain = 0
KSLS 171515Z 00013G20KT 09/02 A3017 RMK A01 T00930017  RH  060%=      5-min Rain = 0
KSLS 171520Z 01016G22KT 09/02 A3017 RMK A01 T00930016  RH  059%=      5-min Rain = 0
KSLS 171525Z 01016G22KT 09/02 A3017 RMK A01 T00940016  RH  059%=      5-min Rain = 0
KSLS 171530Z 01016G23KT 10/02 A3017 RMK A01 T00950016  RH  059%=      5-min Rain = 0
KSLS 171535Z 02015G20KT 10/02 A3017 RMK A01 T00960017  RH  058%=      5-min Rain = 0
KSLS 171540Z 02013G18KT 10/02 A3017 RMK A01 T00990017  RH  057%=      5-min Rain = 0
KSLS 171545Z 01017G22KT 10/02 A3017 RMK A01 T00990017  RH  057%=      5-min Rain = 0
KSLS 171550Z 00017G24KT 10/02 A3017 RMK A01 T01000016  RH  057%=      5-min Rain = 0
KSLS 171555Z 01017G23KT 10/02 A3017 RMK A01 T01000016  RH  057%=      5-min Rain = 0
KSLS 171600Z 01017G24KT 10/02 A3017 RMK A01 T01020017  RH  056%=      5-min Rain = 0
KSLS 171605Z 01018G24KT 10/02 A3018 RMK A01 T01010016  RH  056%=      5-min Rain = 0
KSLS 171610Z 02016G23KT 10/02 A3018 RMK A01 T01030017  RH  056%=      5-min Rain = 0
KSLS 171615Z 01016KT 11/02 A3018 RMK A01 T01060018  RH  055%=      5-min Rain = 0
KSLS 171620Z 01017G23KT 11/02 A3018 RMK A01 T01080018  RH  054%=      5-min Rain = 0
KSLS 171625Z 01016G22KT 11/02 A3017 RMK A01 T01080018  RH  054%=      5-min Rain = 0
KSLS 171630Z 01018KT 11/02 A3017 RMK A01 T01100018  RH  053%=      5-min Rain = 0
KSLS 171635Z 01017G24KT 11/02 A3017 RMK A01 T01100018  RH  054%=      5-min Rain = 0
KSLS 171640Z 02018G24KT 11/02 A3017 RMK A01 T01120019  RH  053%=      5-min Rain = 0
KSLS 171645Z 02014G22KT 12/02 A3017 RMK A01 T01150020  RH  053%=      5-min Rain = 0
KSLS 171650Z 00014G21KT 12/02 A3017 RMK A01 T01170020  RH  052%=      5-min Rain = 0
KSLS 171655Z 01015G20KT 12/02 A3017 RMK A01 T01170020  RH  052%=      5-min Rain = 0
KSLS 171700Z 01014G20KT 12/02 A3017 RMK A01 T01200021  RH  051%=      5-min Rain = 0
KSLS 171705Z 01015G20KT 12/02 A3017 RMK A01 T01200020  RH  051%=      5-min Rain = 0
KSLS 171710Z 01012KT 12/02 A3017 RMK A01 T01220021  RH  051%=      5-min Rain = 0
KSLS 171715Z 00012G19KT 13/02 A3017 RMK A01 T01260022  RH  050%=      5-min Rain = 0
KSLS 171720Z 00013G18KT 13/02 A3017 RMK A01 T01250020  RH  049%=      5-min Rain = 0
KSLS 171725Z 01013KT 12/02 A3016 RMK A01 T01240020  RH  049%=      5-min Rain = 0
KSLS 171730Z 01015KT 13/02 A3016 RMK A01 T01250019  RH  049%=      5-min Rain = 0
KSLS 171735Z 00013KT 13/02 A3016 RMK A01 T01270020  RH  049%=      5-min Rain = 0
KSLS 171740Z 36013G19KT 13/02 A3016 RMK A01 T01300021  RH  048%=      5-min Rain = 0
KSLS 171745Z 36011G18KT 14/02 A3016 RMK A01 T01350024  RH  047%=      5-min Rain = 0
KSLS 171750Z 35015KT 13/02 A3016 RMK A01 T01330021  RH  047%=      5-min Rain = 0
KSLS 171755Z 35012G18KT 13/02 A3015 RMK A01 T01320022  RH  048%=      5-min Rain = 0
KSLS 171800Z 01012G17KT 13/02 A3015 RMK A01 T01340021  RH  047%=      5-min Rain = 0
KSLS 171805Z 01012G18KT 14/02 A3015 RMK A01 T01350021  RH  047%=      5-min Rain = 0
KSLS 171810Z 01011KT 14/02 A3015 RMK A01 T01380022  RH  046%=      5-min Rain = 0
KSLS 171815Z 01010G16KT 14/02 A3015 RMK A01 T01410023  RH  045%=      5-min Rain = 0
KSLS 171820Z 02011KT 14/02 A3014 RMK A01 T01440022  RH  044%=      5-min Rain = 0
KSLS 171825Z 01011KT 15/02 A3014 RMK A01 T01450023  RH  044%=      5-min Rain = 0
KSLS 171830Z 01009KT 15/02 A3014 RMK A01 T01460023  RH  044%=      5-min Rain = 0
KSLS 171835Z 01011G16KT 15/02 A3014 RMK A01 T01450021  RH  044%=      5-min Rain = 0
KSLS 171840Z 02010G16KT 15/02 A3013 RMK A01 T01490024  RH  043%=      5-min Rain = 0
KSLS 171845Z 02009G14KT 15/02 A3013 RMK A01 T01500023  RH  043%=      5-min Rain = 0
KSLS 171850Z 36011G18KT 15/02 A3013 RMK A01 T01520024  RH  043%=      5-min Rain = 0
KSLS 171855Z 00011G17KT 15/02 A3013 RMK A01 T01490022  RH  043%=      5-min Rain = 0
KSLS 171900Z 36010G15KT 15/02 A3013 RMK A01 T01540024  RH  042%=      5-min Rain = 0
KSLS 171905Z 02010KT 15/02 A3013 RMK A01 T01530022  RH  042%=      5-min Rain = 0
KSLS 171910Z 01011G17KT 15/02 A3013 RMK A01 T01530024  RH  042%=      5-min Rain = 0
KSLS 171915Z 00013G20KT 15/02 A3013 RMK A01 T01530023  RH  042%=      5-min Rain = 0
KSLS 171920Z 01011G19KT 16/03 A3013 RMK A01 T01560025  RH  042%=      5-min Rain = 0
KSLS 171925Z 00011G17KT 16/02 A3013 RMK A01 T01560024  RH  041%=      5-min Rain = 0
KSLS 171930Z 00011KT 16/02 A3013 RMK A01 T01570023  RH  041%=      5-min Rain = 0
KSLS 171935Z 01011G16KT 16/02 A3013 RMK A01 T01580024  RH  041%=      5-min Rain = 0
KSLS 171940Z 01013KT 16/02 A3013 RMK A01 T01550023  RH  041%=      5-min Rain = 0
KSLS 171945Z 02012G17KT 16/02 A3013 RMK A01 T01570022  RH  041%=      5-min Rain = 0
KSLS 171950Z 36009G14KT 16/02 A3013 RMK A01 T01590024  RH  041%=      5-min Rain = 0
KSLS 171955Z 01010KT 16/02 A3013 RMK A01 T01600024  RH  040%=      5-min Rain = 0
KSLS 172000Z 01011G16KT 16/02 A3012 RMK A01 T01620024  RH  040%=      5-min Rain = 0
KSLS 172005Z 03010G17KT 16/02 A3012 RMK A01 T01620022  RH  040%=      5-min Rain = 0
KSLS 172010Z 01012G18KT 16/02 A3012 RMK A01 T01620021  RH  039%=      5-min Rain = 0
KSLS 172015Z 02010G16KT 16/02 A3012 RMK A01 T01630023  RH  039%=      5-min Rain = 0
KSLS 172020Z 03010KT 16/02 A3011 RMK A01 T01620021  RH  039%=      5-min Rain = 0
KSLS 172025Z 02010G16KT 16/02 A3011 RMK A01 T01590020  RH  040%=      5-min Rain = 0
KSLS 172030Z 02009G17KT 16/02 A3011 RMK A01 T01600021  RH  040%=      5-min Rain = 0
KSLS 172035Z 02009G15KT 16/02 A3011 RMK A01 T01600020  RH  039%=      5-min Rain = 0
KSLS 172040Z 00007KT 16/02 A301 RMK A01 T01600021  RH  039%=      5-min Rain = 0
KSLS 172045Z 35006G11KT 16/02 A301 RMK A01 T01590021  RH  040%=      5-min Rain = 0
KSLS 172050Z 03007KT 16/02 A301 RMK A01 T01610021  RH  039%=      5-min Rain = 0
KSLS 172055Z 03008G13KT 16/02 A301 RMK A01 T01620019  RH  039%=      5-min Rain = 0
KSLS 172100Z 01005KT 16/02 A301 RMK A01 T01600018  RH  039%=      5-min Rain = 0
KSLS 172105Z 02004KT 16/02 A301 RMK A01 T01610022  RH  040%=      5-min Rain = 0
KSLS 172110Z 07005KT 16/02 A301 RMK A01 T01610020  RH  039%=      5-min Rain = 0
KSLS 172115Z 02004KT 16/02 A301 RMK A01 T01620021  RH  039%=      5-min Rain = 0
KSLS 172120Z 00007KT 16/02 A3009 RMK A01 T01630021  RH  039%=      5-min Rain = 0
KSLS 172125Z 02006G11KT 16/02 A301 RMK A01 T01610019  RH  039%=      5-min Rain = 0
KSLS 172130Z 04007KT 16/02 A3009 RMK A01 T01610019  RH  039%=      5-min Rain = 0
KSLS 172135Z 02003G8KT 16/02 A3009 RMK A01 T01610020  RH  039%=      5-min Rain = 0
KSLS 172140Z 02003KT 16/02 A3009 RMK A01 T01630020  RH  039%=      5-min Rain = 0
KSLS 172145Z 04005KT 16/02 A3009 RMK A01 T01620023  RH  039%=      5-min Rain = 0
KSLS 172150Z 00005KT 16/02 A3009 RMK A01 T01610020  RH  039%=      5-min Rain = 0
KSLS 172155Z 00004KT 16/02 A3009 RMK A01 T01610018  RH  039%=      5-min Rain = 0
KSLS 172200Z 03004KT 16/02 A3009 RMK A01 T01610019  RH  039%=      5-min Rain = 0
KSLS 172205Z 05003KT 16/02 A3009 RMK A01 T01590020  RH  039%=      5-min Rain = 0
KSLS 172210Z 04005KT 16/02 A3009 RMK A01 T01600021  RH  040%=      5-min Rain = 0
KSLS 172215Z 01003KT 16/02 A3009 RMK A01 T01590018  RH  039%=      5-min Rain = 0
KSLS 172220Z 36004KT 16/02 A3009 RMK A01 T01610019  RH  039%=      5-min Rain = 0
KSLS 172225Z 01004KT 16/02 A3009 RMK A01 T01600018  RH  039%=      5-min Rain = 0
KSLS 172230Z 03002KT 16/02 A3009 RMK A01 T01590017  RH  039%=      5-min Rain = 0
KSLS 172235Z 05002KT 16/02 A3009 RMK A01 T01590018  RH  039%=      5-min Rain = 0
KSLS 172240Z 04002KT 16/02 A3009 RMK A01 T01590019  RH  039%=      5-min Rain = 0
KSLS 172245Z 01003KT 16/02 A3009 RMK A01 T01580018  RH  039%=      5-min Rain = 0
KSLS 172250Z 35002KT 16/02 A3009 RMK A01 T01580017  RH  039%=      5-min Rain = 0
KSLS 172255Z 34002KT 16/02 A3009 RMK A01 T01570017  RH  039%=      5-min Rain = 0
KSLS 172300Z 36003KT 15/02 A3009 RMK A01 T01530018  RH  041%=      5-min Rain = 0
KSLS 172305Z 00004KT 15/02 A3009 RMK A01 T01510020  RH  042%=      5-min Rain = 0
KSLS 172310Z 36004KT 15/02 A3009 RMK A01 T01480020  RH  043%=      5-min Rain = 0
KSLS 172315Z 35003KT 14/02 A3009 RMK A01 T01440020  RH  044%=      5-min Rain = 0
KSLS 172320Z 35003KT 14/02 A3009 RMK A01 T01410019  RH  044%=      5-min Rain = 0
KSLS 172325Z 33004KT 14/02 A3009 RMK A01 T01370020  RH  046%=      5-min Rain = 0
KSLS 172330Z 33005KT 14/02 A3009 RMK A01 T01360019  RH  046%=      5-min Rain = 0
KSLS 172335Z 34004KT 13/02 A3009 RMK A01 T01300019  RH  047%=      5-min Rain = 0
KSLS 172340Z 33004KT 13/02 A301 RMK A01 T01280018  RH  048%=      5-min Rain = 0
KSLS 172345Z 33005KT 13/02 A301 RMK A01 T01280017  RH  047%=      5-min Rain = 0
KSLS 172350Z 32004KT 13/02 A301 RMK A01 T01280016  RH  047%=      5-min Rain = 0
KSLS 172355Z 32005KT 13/02 A301 RMK A01 T01280016  RH  047%=      5-min Rain = 0
KSLS 180000Z 33004KT 13/02 A301 RMK A01 T01260016  RH  048%=      5-min Rain = 0
KSLS 180005Z 33005KT 12/02 A301 RMK A01 T01220016  RH  049%=      5-min Rain = 0
KSLS 180010Z 33005KT 12/02 A301 RMK A01 T01170016  RH  050%=      5-min Rain = 0
KSLS 180015Z 33004KT 12/02 A301 RMK A01 T01150015  RH  051%=      5-min Rain = 0
KSLS 180020Z 33004KT 11/01 A301 RMK A01 T01100014  RH  052%=      5-min Rain = 0
KSLS 180025Z 33003KT 11/01 A301 RMK A01 T01050014  RH  054%=      5-min Rain = 0
KSLS 180030Z 33003KT 11/02 A3011 RMK A01 T01110016  RH  052%=      5-min Rain = 0
KSLS 180035Z 33002KT 12/02 A3011 RMK A01 T01160015  RH  051%=      5-min Rain = 0
KSLS 180040Z 33001KT 11/01 A3011 RMK A01 T01130014  RH  051%=      5-min Rain = 0
KSLS 180045Z 33001KT 10/01 A3011 RMK A01 T01030014  RH  054%=      5-min Rain = 0
KSLS 180050Z 34000KT 10/02 A3011 RMK A01 T00970016  RH  057%=      5-min Rain = 0
KSLS 180055Z 00000KT 10/02 A3011 RMK A01 T00980017  RH  058%=      5-min Rain = 0
KSLS 180100Z 34000KT 09/02 A3011 RMK A01 T00900019  RH  062%=      5-min Rain = 0
KSLS 180105Z 33001KT 09/02 A3011 RMK A01 T00880019  RH  063%=      5-min Rain = 0
KSLS 180110Z 32001KT 10/02 A3011 RMK A01 T00950019  RH  060%=      5-min Rain = 0
KSLS 180115Z 29002KT 09/02 A3011 RMK A01 T00940018  RH  060%=      5-min Rain = 0
KSLS 180120Z 27002KT 09/02 A3011 RMK A01 T00920018  RH  060%=      5-min Rain = 0
KSLS 180125Z 26001KT 08/02 A3011 RMK A01 T00810018  RH  065%=      5-min Rain = 0
KSLS 180130Z 26000KT 09/02 A3011 RMK A01 T00850021  RH  065%=      5-min Rain = 0
KSLS 180135Z 26001KT 10/02 A3011 RMK A01 T01020019  RH  057%=      5-min Rain = 0
KSLS 180140Z 26001KT 11/02 A3011 RMK A01 T01070018  RH  055%=      5-min Rain = 0
KSLS 180145Z 26001KT 11/02 A3011 RMK A01 T01080017  RH  054%=      5-min Rain = 0
KSLS 180150Z 25001KT 10/02 A3011 RMK A01 T00970016  RH  058%=      5-min Rain = 0
KSLS 180155Z 25001KT 08/02 A3011 RMK A01 T00840020  RH  065%=      5-min Rain = 0
KSLS 180200Z 25001KT 09/02 A3011 RMK A01 T00910022  RH  063%=      5-min Rain = 0
KSLS 180205Z 25000KT 10/02 A3011 RMK A01 T00950020  RH  060%=      5-min Rain = 0
KSLS 180210Z 25000KT 10/02 A3012 RMK A01 T00970019  RH  059%=      5-min Rain = 0
KSLS 180215Z 00000KT 10/02 A3012 RMK A01 T01010019  RH  057%=      5-min Rain = 0
KSLS 180220Z 00000KT 10/02 A3012 RMK A01 T01010018  RH  057%=      5-min Rain = 0
KSLS 180225Z 00000KT 10/02 A3012 RMK A01 T01040018  RH  056%=      5-min Rain = 0
KSLS 180230Z 00000KT 11/02 A3012 RMK A01 T01050017  RH  055%=      5-min Rain = 0
KSLS 180235Z 00000KT 10/02 A3012 RMK A01 T01020017  RH  056%=      5-min Rain = 0
KSLS 180240Z 16001KT 09/02 A3012 RMK A01 T00860015  RH  061%=      5-min Rain = 0
KSLS 180245Z 16001KT 08/02 A3012 RMK A01 T00760020  RH  068%=      5-min Rain = 0
KSLS 180250Z 17001KT 08/02 A3012 RMK A01 T00810020  RH  066%=      5-min Rain = 0
KSLS 180255Z 17000KT 08/02 A3012 RMK A01 T00840020  RH  064%=      5-min Rain = 0
KSLS 180300Z 00000KT 09/02 A3012 RMK A01 T00880020  RH  063%=      5-min Rain = 0
KSLS 180305Z 11001KT 09/02 A3012 RMK A01 T00890018  RH  062%=      5-min Rain = 0
KSLS 180310Z 10002KT 09/02 A3011 RMK A01 T00880018  RH  062%=      5-min Rain = 0
KSLS 180315Z 08002KT 09/02 A3011 RMK A01 T00870017  RH  062%=      5-min Rain = 0
KSLS 180320Z 06001KT 09/02 A3011 RMK A01 T00870017  RH  062%=      5-min Rain = 0
KSLS 180325Z 07001KT 09/02 A3011 RMK A01 T00860016  RH  062%=      5-min Rain = 0
KSLS 180330Z 08001KT 09/02 A3011 RMK A01 T00850015  RH  062%=      5-min Rain = 0
KSLS 180335Z 07001KT 09/02 A3011 RMK A01 T00870016  RH  062%=      5-min Rain = 0
KSLS 180340Z 07000KT 09/02 A3011 RMK A01 T00870016  RH  062%=      5-min Rain = 0
KSLS 180345Z 00000KT 08/01 A3011 RMK A01 T00830014  RH  063%=      5-min Rain = 0
KSLS 180350Z 00000KT 08/02 A3011 RMK A01 T00790015  RH  064%=      5-min Rain = 0
KSLS 180355Z 15000KT 08/02 A3011 RMK A01 T00770016  RH  066%=      5-min Rain = 0
KSLS 180400Z 17002KT 08/02 A3011 RMK A01 T00750018  RH  068%=      5-min Rain = 0
KSLS 180405Z 18002KT 07/02 A3011 RMK A01 T00680018  RH  071%=      5-min Rain = 0
KSLS 180410Z 18003KT 07/02 A3011 RMK A01 T00650017  RH  072%=      5-min Rain = 0
KSLS 180415Z 19003KT 07/02 A3011 RMK A01 T00650017  RH  072%=      5-min Rain = 0
KSLS 180420Z 19003KT 07/02 A3011 RMK A01 T00710018  RH  070%=      5-min Rain = 0
KSLS 180425Z 20005KT 06/01 A3011 RMK A01 T00590012  RH  073%=      5-min Rain = 0
KSLS 180430Z 20006KT 05/01 A3011 RMK A01 T00460012  RH  080%=      5-min Rain = 0
KSLS 180435Z 20006KT 05/02 A3011 RMK A01 T00510017  RH  080%=      5-min Rain = 0
KSLS 180440Z 20006KT 06/02 A301 RMK A01 T00550015  RH  076%=      5-min Rain = 0
KSLS 180445Z 20005KT 06/02 A301 RMK A01 T00580016  RH  075%=      5-min Rain = 0
KSLS 180450Z 20005KT 06/02 A301 RMK A01 T00640016  RH  072%=      5-min Rain = 0
KSLS 180455Z 20005KT 07/02 A301 RMK A01 T00670016  RH  071%=      5-min Rain = 0
KSLS 180500Z 20005KT 07/02 A301 RMK A01 T00670015  RH  070%=      5-min Rain = 0
KSLS 180505Z 21005KT 06/02 A301 RMK A01 T00640015  RH  071%=      5-min Rain = 0
KSLS 180510Z 21005KT 06/01 A301 RMK A01 T00640014  RH  071%=      5-min Rain = 0
KSLS 180515Z 21005KT 06/01 A301 RMK A01 T00590013  RH  073%=      5-min Rain = 0
KSLS 180520Z 21006KT 05/01 A301 RMK A01 T00530012  RH  076%=      5-min Rain = 0
KSLS 180525Z 21006KT 05/01 A3009 RMK A01 T00540013  RH  076%=      5-min Rain = 0
KSLS 180530Z 21006KT 05/01 A3009 RMK A01 T00500012  RH  077%=      5-min Rain = 0
KSLS 180535Z 21006KT 05/01 A3009 RMK A01 T00530014  RH  076%=      5-min Rain = 0
KSLS 180540Z 21007KT 05/01 A3009 RMK A01 T00540013  RH  076%=      5-min Rain = 0
KSLS 180545Z 21007KT 05/01 A3009 RMK A01 T00510013  RH  077%=      5-min Rain = 0
KSLS 180550Z 21007KT 05/01 A3009 RMK A01 T00490012  RH  078%=      5-min Rain = 0
KSLS 180555Z 21008KT 04/01 A3009 RMK A01 T00410009  RH  081%=      5-min Rain = 0

Page generated in 0.0174 seconds.